K Marine Vii — WDI7098 — position and weather

sailwx.info

Track history (hours):
 
Tides and Currents Weather Stations Pressure Air Temp Water Temp Dewpoint Dewpoint Depression Visibility Wind Speed Wind Dir Waves Ship Positions

K Marine Vii

Owner: Kilgore Marine LLC, Lafayette, LA. More information available from US FCC via Universal Licensing System and Coast Guard Vessel Documentation Center.

Last reported at 2018-May-18 09:08 UTC. Time now 2018-May-21 11:09 UTC.
Position N 28°14' W 092°08'.

Length 57 m; draft 3 m.

Type: Cargo ship. MMSI: 366898000.

Date/timePositionNaut miles runAvg speedWind from/ knotsBaromVisibWave heightAir tempDewpointWater temp
2018-May-18 09:08N 28°14' W 092°08'0 0.1
2018-May-18 07:19N 28°14' W 092°07'0 0.0
2018-May-18 06:59N 28°14' W 092°07'0 0.0
2018-May-18 05:42N 28°14' W 092°07'0 0.0
2018-May-18 05:21N 28°14' W 092°07'0 0.0
2018-May-18 04:48N 28°14' W 092°07'0 0.0
2018-May-18 04:23N 28°14' W 092°07'0 0.1
2018-May-18 03:31N 28°14' W 092°07'0 1.8
2018-May-18 03:24N 28°14' W 092°08'2 3.6
2018-May-18 02:54N 28°14' W 092°06'1 1.4
2018-May-18 02:27N 28°13' W 092°05'3 4.9
2018-May-18 01:54N 28°14' W 092°08'2 4.9
2018-May-18 01:30N 28°15' W 092°10'5 1.2
2018-May-17 21:35N 28°13' W 092°05'0 5.2
2018-May-17 21:30N 28°13' W 092°06'3 5.2
2018-May-17 20:53N 28°15' W 092°09'1 1.6
2018-May-17 20:20N 28°15' W 092°10'6 0.4
2018-May-17 05:11N 28°12' W 092°04'1 4.6
2018-May-17 05:00N 28°13' W 092°05'2 4.8
2018-May-17 04:29N 28°14' W 092°07'2 4.8
2018-May-17 04:00N 28°16' W 092°09'2 3.5
2018-May-17 03:30N 28°17' W 092°10'2 4.6
2018-May-17 03:00N 28°16' W 092°09'2 4.4
2018-May-17 02:30N 28°14' W 092°07'2 3.2
2018-May-17 01:54N 28°13' W 092°05'0 0.8
2018-May-17 01:30N 28°13' W 092°06'2 0.9
2018-May-16 23:44N 28°14' W 092°07'0 1.0
2018-May-16 23:30N 28°14' W 092°07'0 0.9
2018-May-16 23:00N 28°15' W 092°07'2 0.9
2018-May-16 20:54N 28°13' W 092°06'0 0.8
2018-May-16 20:30N 28°14' W 092°06'1 0.2
2018-May-16 14:24N 28°13' W 092°05'2 4.5
2018-May-16 14:00N 28°14' W 092°07'3 4.7
2018-May-16 13:18N 28°16' W 092°10'6 3.6
2018-May-16 11:45N 28°13' W 092°05'3 4.4
2018-May-16 11:01N 28°15' W 092°08'0 4.7
2018-May-16 11:00N 28°15' W 092°08'4 0.4
2018-May-16 01:44N 28°12' W 092°05'2 4.8
2018-May-16 01:23N 28°13' W 092°07'2 4.9
2018-May-16 00:55N 28°15' W 092°09'4 0.4
2018-May-15 15:14N 28°13' W 092°04'1 4.7
2018-May-15 15:00N 28°14' W 092°05'5 4.8
2018-May-15 14:02N 28°16' W 092°10'0 5.1
2018-May-15 14:00N 28°16' W 092°10'0 0.3
2018-May-15 13:24N 28°16' W 092°10'6 1.6
2018-May-15 09:35N 28°14' W 092°04'0 4.7
2018-May-15 09:30N 28°14' W 092°03'0 0.5
2018-May-15 09:00N 28°14' W 092°03'2 0.4
2018-May-15 05:16N 28°13' W 092°04'1 4.4
2018-May-15 04:58N 28°14' W 092°06'2 4.3
2018-May-15 04:29N 28°14' W 092°08'3 0.7
2018-May-14 23:53N 28°13' W 092°05'0 0.0
2018-May-14 18:21N 28°13' W 092°05'2 4.4
2018-May-14 17:59N 28°14' W 092°06'2 4.6
2018-May-14 17:30N 28°15' W 092°08'2 3.8
2018-May-14 17:00N 28°17' W 092°10'2 4.6
2018-May-14 16:30N 28°15' W 092°08'4 4.8
2018-May-14 15:36N 28°12' W 092°05'0 3.8
2018-May-14 15:30N 28°12' W 092°05'2 4.2
2018-May-14 14:56N 28°14' W 092°06'5 4.3
2018-May-14 13:43N 28°18' W 092°09'1 4.6
2018-May-14 13:30N 28°17' W 092°09'3 5.0
2018-May-14 12:58N 28°15' W 092°08'2 5.0
2018-May-14 12:30N 28°13' W 092°06'  
2018-May-09 07:37N 28°46' W 090°54'210.0
2018-May-09 07:26N 28°46' W 090°56'610.0
2018-May-09 06:52N 28°43' W 091°02'35 9.8
2018-May-09 03:19N 28°27' W 091°37'610.5
2018-May-09 02:46N 28°25' W 091°43'310.7
2018-May-09 02:30N 28°23' W 091°46'510.4
2018-May-09 02:00N 28°21' W 091°51'510.3
2018-May-09 01:29N 28°19' W 091°57'610.2
2018-May-09 00:56N 28°16' W 092°02'510.2
2018-May-09 00:29N 28°14' W 092°07'1 1.4
2018-May-08 23:58N 28°14' W 092°06'1 0.7
2018-May-08 22:38N 28°14' W 092°07'0 0.7
2018-May-08 22:25N 28°14' W 092°08'0 0.6
2018-May-08 22:00N 28°14' W 092°08'1 0.2
2018-May-08 19:23N 28°14' W 092°08'0 0.6
2018-May-08 19:00N 28°14' W 092°08'0 0.3
2018-May-08 17:49N 28°14' W 092°08'1 2.8
2018-May-08 17:23N 28°14' W 092°07'0 0.0
2018-May-08 17:00N 28°14' W 092°07'0 0.7
2018-May-08 16:30N 28°14' W 092°07'0 0.7
2018-May-08 16:00N 28°14' W 092°07'1 2.5
2018-May-08 15:31N 28°14' W 092°06'0 0.7
2018-May-08 15:00N 28°14' W 092°06'0 0.7
2018-May-08 14:26N 28°14' W 092°06'0 0.7
2018-May-08 13:58N 28°14' W 092°07'0 0.6
2018-May-08 13:30N 28°15' W 092°07'0 0.5
2018-May-08 13:00N 28°15' W 092°07'0 0.5
2018-May-08 12:29N 28°15' W 092°07'0 0.4
2018-May-08 11:58N 28°15' W 092°08'0 0.5
2018-May-08 11:30N 28°15' W 092°08'  
Track history (hours):
 
Tides and Currents Weather Stations Pressure Air Temp Water Temp Dewpoint Dewpoint Depression Visibility Wind Speed Wind Dir Waves Ship Positions

K Marine Vii

Owner: Kilgore Marine LLC, Lafayette, LA. More information available from US FCC via Universal Licensing System and Coast Guard Vessel Documentation Center.

Last reported at 2018-May-18 09:08 UTC. Time now 2018-May-21 11:09 UTC.
Position N 28°14' W 092°08'.

Length 57 m; draft 3 m.

Type: Cargo ship. MMSI: 366898000.

Date/timePositionNaut miles runAvg speedWind from/ knotsBaromVisibWave heightAir tempDewpointWater temp
2018-May-18 09:08N 28°14' W 092°08'0 0.1
2018-May-18 07:19N 28°14' W 092°07'0 0.0
2018-May-18 06:59N 28°14' W 092°07'0 0.0
2018-May-18 05:42N 28°14' W 092°07'0 0.0
2018-May-18 05:21N 28°14' W 092°07'0 0.0
2018-May-18 04:48N 28°14' W 092°07'0 0.0
2018-May-18 04:23N 28°14' W 092°07'0 0.1
2018-May-18 03:31N 28°14' W 092°07'0 1.8
2018-May-18 03:24N 28°14' W 092°08'2 3.6
2018-May-18 02:54N 28°14' W 092°06'1 1.4
2018-May-18 02:27N 28°13' W 092°05'3 4.9
2018-May-18 01:54N 28°14' W 092°08'2 4.9
2018-May-18 01:30N 28°15' W 092°10'5 1.2
2018-May-17 21:35N 28°13' W 092°05'0 5.2
2018-May-17 21:30N 28°13' W 092°06'3 5.2
2018-May-17 20:53N 28°15' W 092°09'1 1.6
2018-May-17 20:20N 28°15' W 092°10'6 0.4
2018-May-17 05:11N 28°12' W 092°04'1 4.6
2018-May-17 05:00N 28°13' W 092°05'2 4.8
2018-May-17 04:29N 28°14' W 092°07'2 4.8
2018-May-17 04:00N 28°16' W 092°09'2 3.5
2018-May-17 03:30N 28°17' W 092°10'2 4.6
2018-May-17 03:00N 28°16' W 092°09'2 4.4
2018-May-17 02:30N 28°14' W 092°07'2 3.2
2018-May-17 01:54N 28°13' W 092°05'0 0.8
2018-May-17 01:30N 28°13' W 092°06'2 0.9
2018-May-16 23:44N 28°14' W 092°07'0 1.0
2018-May-16 23:30N 28°14' W 092°07'0 0.9
2018-May-16 23:00N 28°15' W 092°07'2 0.9
2018-May-16 20:54N 28°13' W 092°06'0 0.8
2018-May-16 20:30N 28°14' W 092°06'1 0.2
2018-May-16 14:24N 28°13' W 092°05'2 4.5
2018-May-16 14:00N 28°14' W 092°07'3 4.7
2018-May-16 13:18N 28°16' W 092°10'6 3.6
2018-May-16 11:45N 28°13' W 092°05'3 4.4
2018-May-16 11:01N 28°15' W 092°08'0 4.7
2018-May-16 11:00N 28°15' W 092°08'4 0.4
2018-May-16 01:44N 28°12' W 092°05'2 4.8
2018-May-16 01:23N 28°13' W 092°07'2 4.9
2018-May-16 00:55N 28°15' W 092°09'4 0.4
2018-May-15 15:14N 28°13' W 092°04'1 4.7
2018-May-15 15:00N 28°14' W 092°05'5 4.8
2018-May-15 14:02N 28°16' W 092°10'0 5.1
2018-May-15 14:00N 28°16' W 092°10'0 0.3
2018-May-15 13:24N 28°16' W 092°10'6 1.6
2018-May-15 09:35N 28°14' W 092°04'0 4.7
2018-May-15 09:30N 28°14' W 092°03'0 0.5
2018-May-15 09:00N 28°14' W 092°03'2 0.4
2018-May-15 05:16N 28°13' W 092°04'1 4.4
2018-May-15 04:58N 28°14' W 092°06'2 4.3
2018-May-15 04:29N 28°14' W 092°08'3 0.7
2018-May-14 23:53N 28°13' W 092°05'0 0.0
2018-May-14 18:21N 28°13' W 092°05'2 4.4
2018-May-14 17:59N 28°14' W 092°06'2 4.6
2018-May-14 17:30N 28°15' W 092°08'2 3.8
2018-May-14 17:00N 28°17' W 092°10'2 4.6
2018-May-14 16:30N 28°15' W 092°08'4 4.8
2018-May-14 15:36N 28°12' W 092°05'0 3.8
2018-May-14 15:30N 28°12' W 092°05'2 4.2
2018-May-14 14:56N 28°14' W 092°06'5 4.3
2018-May-14 13:43N 28°18' W 092°09'1 4.6
2018-May-14 13:30N 28°17' W 092°09'3 5.0
2018-May-14 12:58N 28°15' W 092°08'2 5.0
2018-May-14 12:30N 28°13' W 092°06'  
2018-May-09 07:37N 28°46' W 090°54'210.0
2018-May-09 07:26N 28°46' W 090°56'610.0
2018-May-09 06:52N 28°43' W 091°02'35 9.8
2018-May-09 03:19N 28°27' W 091°37'610.5
2018-May-09 02:46N 28°25' W 091°43'310.7
2018-May-09 02:30N 28°23' W 091°46'510.4
2018-May-09 02:00N 28°21' W 091°51'510.3
2018-May-09 01:29N 28°19' W 091°57'610.2
2018-May-09 00:56N 28°16' W 092°02'510.2
2018-May-09 00:29N 28°14' W 092°07'1 1.4
2018-May-08 23:58N 28°14' W 092°06'1 0.7
2018-May-08 22:38N 28°14' W 092°07'0 0.7
2018-May-08 22:25N 28°14' W 092°08'0 0.6
2018-May-08 22:00N 28°14' W 092°08'1 0.2
2018-May-08 19:23N 28°14' W 092°08'0 0.6
2018-May-08 19:00N 28°14' W 092°08'0 0.3
2018-May-08 17:49N 28°14' W 092°08'1 2.8
2018-May-08 17:23N 28°14' W 092°07'0 0.0
2018-May-08 17:00N 28°14' W 092°07'0 0.7
2018-May-08 16:30N 28°14' W 092°07'0 0.7
2018-May-08 16:00N 28°14' W 092°07'1 2.5
2018-May-08 15:31N 28°14' W 092°06'0 0.7
2018-May-08 15:00N 28°14' W 092°06'0 0.7
2018-May-08 14:26N 28°14' W 092°06'0 0.7
2018-May-08 13:58N 28°14' W 092°07'0 0.6
2018-May-08 13:30N 28°15' W 092°07'0 0.5
2018-May-08 13:00N 28°15' W 092°07'0 0.5
2018-May-08 12:29N 28°15' W 092°07'0 0.4
2018-May-08 11:58N 28°15' W 092°08'0 0.5
2018-May-08 11:30N 28°15' W 092°08'  

Dump ship's entire track history